Time;durP1;ratioP1;P1;durP2;ratioP2;P2;SDS_P1;SDS_P2;PMS_P1;PMS_P2;Temp;Humidity;BMP_temperature;BMP_pressure;BME280_temperature;BME280_humidity;BME280_pressure;Samples;Min_cycle;Max_cycle;Signal;HPM_P1;HPM_P2
2023/04/06 00:00:08;;;;;;;5.88;1.65;;;24.20;20.70;;;;;;5029380;28;20092;-62
2023/04/06 00:02:35;;;;;;;4.47;1.30;;;24.20;20.80;;;;;;5028765;28;20160;-64
2023/04/06 00:05:02;;;;;;;2.47;1.63;;;24.30;20.50;;;;;;5027480;28;20096;-66
2023/04/06 00:07:29;;;;;;;5.97;1.20;;;23.80;19.70;;;;;;5027770;28;20093;-66
2023/04/06 00:09:56;;;;;;;3.78;1.25;;;23.90;19.90;;;;;;5028325;28;20087;-64
2023/04/06 00:12:22;;;;;;;7.15;1.60;;;23.80;19.60;;;;;;5029407;28;20089;-64
2023/04/06 00:14:49;;;;;;;4.28;1.58;;;23.80;19.70;;;;;;5029613;28;20112;-64
2023/04/06 00:17:15;;;;;;;8.70;1.77;;;23.90;20.10;;;;;;5028820;28;20081;-65
2023/04/06 00:19:42;;;;;;;11.60;1.58;;;23.80;20.10;;;;;;5029791;28;20179;-64
2023/04/06 00:22:08;;;;;;;3.33;1.45;;;24.00;20.60;;;;;;5029572;28;20116;-66
2023/04/06 00:24:35;;;;;;;6.03;1.77;;;24.00;20.30;;;;;;5027364;28;20104;-61
2023/04/06 00:27:01;;;;;;;2.88;1.50;;;23.80;20.40;;;;;;5027922;28;20103;-62
2023/04/06 00:29:28;;;;;;;2.95;1.48;;;23.80;20.80;;;;;;5029410;28;20076;-63
2023/04/06 00:31:54;;;;;;;3.17;1.77;;;23.70;21.20;;;;;;5028350;28;20485;-64
2023/04/06 00:34:21;;;;;;;8.65;2.00;;;23.50;21.70;;;;;;5028893;28;20327;-65
2023/04/06 00:36:47;;;;;;;6.45;1.95;;;23.70;22.50;;;;;;5027763;28;20104;-64
2023/04/06 00:39:14;;;;;;;9.73;2.50;;;23.30;22.40;;;;;;5028108;28;20084;-66
2023/04/06 00:41:46;;;;;;;6.82;2.13;;;23.40;23.50;;;;;;5028308;28;20586;-64
2023/04/06 00:44:12;;;;;;;8.75;2.45;;;23.40;23.00;;;;;;5028080;28;20083;-64
2023/04/06 00:46:39;;;;;;;5.55;2.55;;;23.40;22.90;;;;;;5027940;28;20069;-63
2023/04/06 00:49:05;;;;;;;6.30;2.30;;;23.40;22.90;;;;;;5028276;28;20072;-64
2023/04/06 00:51:32;;;;;;;23.10;10.98;;;23.30;22.90;;;;;;5028110;28;20081;-64
2023/04/06 00:53:58;;;;;;;21.35;9.40;;;23.00;23.00;;;;;;5028429;28;20138;-63
2023/04/06 00:56:26;;;;;;;33.20;18.15;;;22.90;23.00;;;;;;5029207;28;20111;-64
2023/04/06 00:58:52;;;;;;;30.85;13.98;;;22.80;23.00;;;;;;5028122;28;20101;-64
2023/04/06 01:01:19;;;;;;;21.73;11.90;;;22.70;23.30;;;;;;5025744;28;20084;-65
2023/04/06 01:03:48;;;;;;;9.27;3.20;;;22.60;23.40;;;;;;5027831;28;20123;-64
2023/04/06 01:06:15;;;;;;;5.97;2.50;;;22.60;23.30;;;;;;5027524;28;20074;-63
2023/04/06 01:08:41;;;;;;;4.30;2.13;;;22.70;23.30;;;;;;5024049;28;20065;-64
2023/04/06 01:11:08;;;;;;;5.63;2.20;;;22.60;22.70;;;;;;5025991;28;20099;-65
2023/04/06 01:13:34;;;;;;;5.63;2.40;;;22.40;22.20;;;;;;5027903;28;20101;-63
2023/04/06 01:16:02;;;;;;;5.78;2.72;;;22.20;23.30;;;;;;5027010;28;20077;-63
2023/04/06 01:18:29;;;;;;;9.40;2.80;;;22.10;23.80;;;;;;5027213;28;20073;-62
2023/04/06 01:20:56;;;;;;;6.95;4.10;;;22.10;24.30;;;;;;5027839;28;20068;-67
2023/04/06 01:23:26;;;;;;;7.40;3.03;;;22.10;23.40;;;;;;5027024;28;20150;-60
2023/04/06 01:25:53;;;;;;;4.63;2.38;;;21.90;23.00;;;;;;5027427;28;20072;-62
2023/04/06 01:28:19;;;;;;;6.45;2.95;;;21.80;22.70;;;;;;5028456;28;20753;-62
2023/04/06 01:30:46;;;;;;;5.65;2.55;;;21.60;22.70;;;;;;5028046;28;20080;-62
2023/04/06 01:33:12;;;;;;;6.57;2.63;;;21.60;22.80;;;;;;5028964;28;20073;-63
2023/04/06 01:35:39;;;;;;;6.25;2.45;;;21.40;23.00;;;;;;5026660;28;20123;-64
2023/04/06 01:38:05;;;;;;;9.13;3.13;;;21.30;23.10;;;;;;5027462;28;20432;-64
2023/04/06 01:40:32;;;;;;;6.03;2.53;;;21.20;23.50;;;;;;5027774;28;20085;-63
2023/04/06 01:42:59;;;;;;;5.22;2.47;;;21.10;23.60;;;;;;5026362;28;20550;-62
2023/04/06 01:45:25;;;;;;;8.73;2.58;;;21.10;23.50;;;;;;5028429;28;20073;-63
2023/04/06 01:47:52;;;;;;;6.75;2.55;;;21.00;23.60;;;;;;5027366;28;20081;-61
2023/04/06 01:50:18;;;;;;;14.73;3.10;;;20.90;23.90;;;;;;5027378;28;20069;-62
2023/04/06 01:52:45;;;;;;;7.75;2.95;;;20.80;24.00;;;;;;5027817;28;20100;-61
2023/04/06 01:55:13;;;;;;;7.55;2.65;;;20.80;23.80;;;;;;5027476;28;20073;-63
2023/04/06 01:57:39;;;;;;;8.63;2.90;;;20.60;24.30;;;;;;5029098;28;20065;-62
2023/04/06 02:00:06;;;;;;;9.10;3.13;;;20.50;24.70;;;;;;5027396;28;20171;-63
2023/04/06 02:02:33;;;;;;;6.40;3.30;;;20.40;25.00;;;;;;5028484;28;20172;-64
2023/04/06 02:04:59;;;;;;;5.80;3.00;;;20.40;25.20;;;;;;5027699;28;20146;-61
2023/04/06 02:07:26;;;;;;;10.30;3.47;;;20.20;25.10;;;;;;5027593;28;20521;-63
2023/04/06 02:09:55;;;;;;;6.03;3.35;;;20.20;25.30;;;;;;5027394;28;20171;-65
2023/04/06 02:12:23;;;;;;;9.77;3.40;;;20.10;25.50;;;;;;5029323;28;20130;-63
2023/04/06 02:14:50;;;;;;;11.68;4.03;;;20.10;25.70;;;;;;5031443;28;20150;-63
2023/04/06 02:17:16;;;;;;;10.38;3.42;;;20.00;25.80;;;;;;5029594;28;20466;-60
2023/04/06 02:19:42;;;;;;;8.30;3.58;;;19.90;26.10;;;;;;5031723;28;20088;-64
2023/04/06 02:22:10;;;;;;;10.02;4.28;;;19.80;26.50;;;;;;5031429;28;20080;-63
2023/04/06 02:24:37;;;;;;;7.85;3.92;;;19.70;26.10;;;;;;5030808;28;20108;-62
2023/04/06 02:27:03;;;;;;;12.95;3.78;;;19.70;27.00;;;;;;5029697;28;20069;-64
2023/04/06 02:29:30;;;;;;;14.77;4.18;;;19.60;27.20;;;;;;5030873;28;20116;-61
2023/04/06 02:31:56;;;;;;;10.48;4.45;;;19.50;26.90;;;;;;5030865;28;20077;-63
2023/04/06 02:34:22;;;;;;;13.45;4.32;;;19.40;27.00;;;;;;5031270;28;20521;-59
2023/04/06 02:36:50;;;;;;;12.45;4.13;;;19.40;27.20;;;;;;5031786;28;20080;-62
2023/04/06 02:39:19;;;;;;;18.20;5.85;;;19.30;27.30;;;;;;5030504;28;20505;-61
2023/04/06 02:41:46;;;;;;;20.17;7.28;;;19.30;27.10;;;;;;5031084;28;20100;-61
2023/04/06 02:44:12;;;;;;;12.93;5.57;;;19.30;27.80;;;;;;5030219;28;20127;-62
2023/04/06 02:46:39;;;;;;;16.50;6.28;;;19.20;28.30;;;;;;5029972;28;20068;-63
2023/04/06 02:49:05;;;;;;;23.05;6.72;;;19.10;28.70;;;;;;5030877;28;20069;-61
2023/04/06 02:51:32;;;;;;;16.42;5.70;;;19.00;27.60;;;;;;5029982;28;20073;-62
2023/04/06 02:53:59;;;;;;;17.67;6.15;;;19.00;29.10;;;;;;5030387;28;20174;-63
2023/04/06 02:56:26;;;;;;;19.70;6.03;;;18.90;28.80;;;;;;5031045;28;20092;-62
2023/04/06 02:58:52;;;;;;;19.38;6.40;;;18.80;29.10;;;;;;5029246;28;20111;-62
2023/04/06 03:01:19;;;;;;;24.70;5.88;;;18.80;30.10;;;;;;5028188;28;20065;-60
2023/04/06 03:03:45;;;;;;;16.08;5.80;;;18.70;30.50;;;;;;5030858;28;20073;-63
2023/04/06 03:06:12;;;;;;;19.23;6.28;;;18.60;30.00;;;;;;5029958;28;20130;-63
2023/04/06 03:08:38;;;;;;;14.80;5.88;;;18.50;29.70;;;;;;5030059;28;20069;-64
2023/04/06 03:11:05;;;;;;;18.42;7.22;;;18.40;30.90;;;;;;5028956;28;20069;-64
2023/04/06 03:13:31;;;;;;;30.85;8.82;;;18.40;31.50;;;;;;5029847;28;20441;-64
2023/04/06 03:15:58;;;;;;;28.77;10.68;;;18.30;31.20;;;;;;5029635;28;20073;-60
2023/04/06 03:18:25;;;;;;;27.45;10.77;;;18.10;31.40;;;;;;5030954;28;20593;-63
2023/04/06 03:20:55;;;;;;;29.13;10.80;;;18.10;32.30;;;;;;5029438;28;20223;-62
2023/04/06 03:23:22;;;;;;;19.60;9.45;;;18.00;33.00;;;;;;5029302;28;20076;-63
2023/04/06 03:25:48;;;;;;;20.80;8.70;;;18.00;32.20;;;;;;5028885;28;20444;-64
2023/04/06 03:28:15;;;;;;;16.83;8.05;;;17.90;32.80;;;;;;5030059;28;20527;-63
2023/04/06 03:30:42;;;;;;;23.55;8.52;;;17.90;33.00;;;;;;5029283;28;20593;-62
2023/04/06 03:33:09;;;;;;;21.65;8.30;;;17.80;32.40;;;;;;5030311;28;20122;-62
2023/04/06 03:35:36;;;;;;;24.52;8.80;;;17.80;34.20;;;;;;5029013;28;20071;-61
2023/04/06 03:38:04;;;;;;;19.40;8.07;;;17.60;33.90;;;;;;5028597;28;20445;-62
2023/04/06 03:40:31;;;;;;;26.08;8.10;;;17.50;33.20;;;;;;5028006;28;20151;-62
2023/04/06 03:42:58;;;;;;;35.03;10.57;;;17.50;33.10;;;;;;5029133;28;20113;-61
2023/04/06 03:45:24;;;;;;;23.00;11.60;;;17.50;33.10;;;;;;5027942;28;20080;-61
2023/04/06 03:47:51;;;;;;;30.17;11.18;;;17.40;31.90;;;;;;5029366;28;20164;-60
2023/04/06 03:50:17;;;;;;;29.65;13.95;;;17.40;31.90;;;;;;5028865;28;20147;-63
2023/04/06 03:52:44;;;;;;;27.50;12.00;;;17.40;32.40;;;;;;5028307;28;20069;-63
2023/04/06 03:55:10;;;;;;;32.45;11.38;;;17.30;32.20;;;;;;5028442;28;20073;-61
2023/04/06 03:57:37;;;;;;;34.35;10.18;;;17.20;31.90;;;;;;5029626;28;20070;-63
2023/04/06 04:00:04;;;;;;;32.28;10.10;;;17.20;32.40;;;;;;5028988;28;20542;-62
2023/04/06 04:02:31;;;;;;;40.65;10.90;;;17.20;32.60;;;;;;5029314;28;20088;-62
2023/04/06 04:04:57;;;;;;;37.42;10.40;;;17.10;33.10;;;;;;5028087;28;20160;-62
2023/04/06 04:07:24;;;;;;;37.03;11.05;;;17.10;32.70;;;;;;5028602;28;20467;-64
2023/04/06 04:09:50;;;;;;;34.58;11.27;;;17.00;32.60;;;;;;5027897;28;20195;-62
2023/04/06 04:12:19;;;;;;;36.05;10.90;;;17.00;35.00;;;;;;5027588;28;20541;-62
2023/04/06 04:14:45;;;;;;;31.60;11.60;;;17.00;34.00;;;;;;5027961;28;20430;-62
2023/04/06 04:17:12;;;;;;;31.10;12.60;;;17.00;33.90;;;;;;5028771;28;20086;-62
2023/04/06 04:19:38;;;;;;;34.42;11.73;;;16.90;33.50;;;;;;5028423;28;20086;-62
2023/04/06 04:22:06;;;;;;;60.63;14.05;;;16.90;33.20;;;;;;5028155;28;20112;-62
2023/04/06 04:24:33;;;;;;;34.25;12.55;;;16.90;33.10;;;;;;5026529;28;20082;-63
2023/04/06 04:27:02;;;;;;;48.05;14.25;;;16.70;34.00;;;;;;5026290;28;20074;-60
2023/04/06 04:29:29;;;;;;;38.13;13.18;;;16.70;33.80;;;;;;5028085;28;20082;-62
2023/04/06 04:31:55;;;;;;;46.45;14.10;;;16.70;33.70;;;;;;5028267;28;20098;-62
2023/04/06 04:34:24;;;;;;;36.45;12.88;;;16.60;33.80;;;;;;5027916;28;20492;-62
2023/04/06 04:36:52;;;;;;;38.80;13.20;;;16.60;33.90;;;;;;5027913;28;20074;-62
2023/04/06 04:39:18;;;;;;;29.13;13.55;;;16.50;34.40;;;;;;5027838;28;20096;-64
2023/04/06 04:41:45;;;;;;;43.85;13.52;;;16.50;34.40;;;;;;5027293;28;20551;-62
2023/04/06 04:44:11;;;;;;;38.63;12.73;;;16.40;34.50;;;;;;5028082;28;20157;-61
2023/04/06 04:46:38;;;;;;;31.40;11.98;;;16.40;34.70;;;;;;5029528;28;20070;-62
2023/04/06 04:49:04;;;;;;;34.42;12.15;;;16.30;35.30;;;;;;5028600;28;20106;-63
2023/04/06 04:51:32;;;;;;;31.58;11.23;;;16.30;35.00;;;;;;5028042;28;20070;-62
2023/04/06 04:53:59;;;;;;;36.15;11.77;;;16.30;34.70;;;;;;5028548;28;20445;-61
2023/04/06 04:56:27;;;;;;;37.17;11.20;;;16.30;34.20;;;;;;5028196;28;20105;-62
2023/04/06 04:58:53;;;;;;;30.75;11.95;;;16.20;34.20;;;;;;5028658;28;20145;-60
2023/04/06 05:01:20;;;;;;;27.55;11.68;;;16.20;34.20;;;;;;5028502;28;20437;-64
2023/04/06 05:03:46;;;;;;;39.15;11.13;;;16.10;34.10;;;;;;5028589;28;20131;-64
2023/04/06 05:06:13;;;;;;;31.65;10.32;;;16.10;34.30;;;;;;5028387;28;20117;-61
2023/04/06 05:08:40;;;;;;;29.25;11.40;;;16.10;34.40;;;;;;5027433;28;20074;-63
2023/04/06 05:11:07;;;;;;;39.00;11.95;;;16.00;35.10;;;;;;5028242;28;20496;-62
2023/04/06 05:13:33;;;;;;;32.35;12.25;;;16.00;35.10;;;;;;5027868;28;20098;-61
2023/04/06 05:16:00;;;;;;;36.83;11.60;;;16.00;35.00;;;;;;5028012;28;20065;-63
2023/04/06 05:18:26;;;;;;;37.35;11.45;;;15.90;36.20;;;;;;5027652;28;20132;-61
2023/04/06 05:20:53;;;;;;;40.92;11.15;;;15.90;35.40;;;;;;5027294;28;20094;-61
2023/04/06 05:23:19;;;;;;;35.95;11.27;;;15.90;35.10;;;;;;5027328;28;20414;-60
2023/04/06 05:25:46;;;;;;;29.98;11.10;;;15.90;34.90;;;;;;5027358;28;20070;-63
2023/04/06 05:28:14;;;;;;;25.75;10.63;;;15.90;35.20;;;;;;5028378;28;20481;-62
2023/04/06 05:30:41;;;;;;;31.50;10.88;;;15.90;35.50;;;;;;5027351;28;20425;-62
2023/04/06 05:33:07;;;;;;;26.65;11.32;;;16.00;35.90;;;;;;5028797;28;20089;-62
2023/04/06 05:35:34;;;;;;;26.50;10.13;;;16.00;34.90;;;;;;5027249;28;20062;-64
2023/04/06 05:38:01;;;;;;;28.92;9.27;;;16.10;35.50;;;;;;5026943;28;20074;-64
2023/04/06 05:40:27;;;;;;;25.67;8.50;;;16.10;35.70;;;;;;5027318;28;20089;-64
2023/04/06 05:42:54;;;;;;;30.10;9.30;;;16.20;35.80;;;;;;5027423;28;20167;-64
2023/04/06 05:45:21;;;;;;;36.13;10.52;;;16.20;35.90;;;;;;5027712;28;20097;-63
2023/04/06 05:47:49;;;;;;;55.67;34.10;;;16.20;36.10;;;;;;5028398;28;20109;-65
2023/04/06 05:50:16;;;;;;;55.47;32.72;;;16.10;36.40;;;;;;5029161;28;20073;-65
2023/04/06 05:52:45;;;;;;;33.00;17.88;;;16.10;36.30;;;;;;5031470;28;20112;-62
2023/04/06 05:55:11;;;;;;;23.20;10.77;;;16.10;36.80;;;;;;5031567;28;20070;-63
2023/04/06 05:57:38;;;;;;;24.60;9.38;;;16.10;37.40;;;;;;5031866;28;20094;-65
2023/04/06 06:00:07;;;;;;;31.73;8.38;;;16.10;37.60;;;;;;5031975;28;20098;-67
2023/04/06 06:02:34;;;;;;;27.27;7.38;;;16.10;37.70;;;;;;5030708;28;20131;-66
2023/04/06 06:05:00;;;;;;;28.95;6.65;;;16.10;38.30;;;;;;5030997;28;20093;-63
2023/04/06 06:07:27;;;;;;;28.52;6.80;;;16.00;38.40;;;;;;5031280;28;20510;-64
2023/04/06 06:09:57;;;;;;;30.38;6.55;;;16.00;39.30;;;;;;5030823;28;20078;-63
2023/04/06 06:12:24;;;;;;;18.13;6.50;;;16.00;39.60;;;;;;5030100;28;20453;-64
2023/04/06 06:14:51;;;;;;;20.45;5.82;;;15.90;39.10;;;;;;5030822;28;20526;-64
2023/04/06 06:17:17;;;;;;;27.17;6.32;;;15.90;39.30;;;;;;5030628;28;20431;-66
2023/04/06 06:19:44;;;;;;;14.80;4.80;;;15.80;39.40;;;;;;5029345;28;20473;-63
2023/04/06 06:22:10;;;;;;;22.75;6.03;;;15.80;40.40;;;;;;5030719;28;20110;-66
2023/04/06 06:24:37;;;;;;;26.10;5.30;;;15.70;40.70;;;;;;5030878;28;20073;-63
2023/04/06 06:27:03;;;;;;;20.33;5.25;;;15.70;41.40;;;;;;5030425;28;20205;-61
2023/04/06 06:29:30;;;;;;;18.02;5.53;;;15.70;41.80;;;;;;5030877;28;20082;-64
2023/04/06 06:31:56;;;;;;;23.30;4.95;;;15.70;41.60;;;;;;5030471;28;20522;-62
2023/04/06 06:34:23;;;;;;;20.30;5.68;;;15.60;41.90;;;;;;5031384;28;20440;-64
2023/04/06 06:36:51;;;;;;;20.15;5.93;;;15.60;42.40;;;;;;5030327;28;20078;-62
2023/04/06 06:39:17;;;;;;;23.10;5.50;;;15.60;43.10;;;;;;5030625;28;20086;-63
2023/04/06 06:41:44;;;;;;;17.27;5.38;;;15.50;42.90;;;;;;5031208;28;20528;-63
2023/04/06 06:44:12;;;;;;;23.13;5.18;;;15.50;41.80;;;;;;5030037;28;20109;-64
2023/04/06 06:46:38;;;;;;;15.25;5.15;;;15.50;41.40;;;;;;5031169;28;20477;-64
2023/04/06 06:49:05;;;;;;;22.50;5.28;;;15.40;41.50;;;;;;5030917;28;20102;-63
2023/04/06 06:51:31;;;;;;;36.38;5.53;;;15.40;41.70;;;;;;5027239;28;20145;-63
2023/04/06 06:53:57;;;;;;;;;;;15.30;43.10;;;;;;5030417;28;20074;-63
2023/04/06 06:56:25;;;;;;;29.00;5.47;;;15.30;42.60;;;;;;5030713;28;19957;-64
2023/04/06 06:58:52;;;;;;;24.92;5.32;;;15.30;43.20;;;;;;5029968;28;20081;-64
2023/04/06 07:01:18;;;;;;;27.95;5.50;;;15.30;43.90;;;;;;5030781;28;20411;-63
2023/04/06 07:03:44;;;;;;;21.90;5.53;;;15.20;43.50;;;;;;5031180;28;20088;-63
2023/04/06 07:06:10;;;;;;;;;;;15.20;43.60;;;;;;5031515;28;20097;-63
2023/04/06 07:08:37;;;;;;;15.73;4.88;;;15.20;43.60;;;;;;5030677;28;19957;-64
2023/04/06 07:11:03;;;;;;;25.63;5.63;;;15.20;44.20;;;;;;5030064;28;20121;-64
2023/04/06 07:13:30;;;;;;;22.70;5.82;;;15.10;44.00;;;;;;5030360;28;20165;-65
2023/04/06 07:15:56;;;;;;;;;;;15.10;43.80;;;;;;5030416;28;20527;-62
2023/04/06 07:18:23;;;;;;;22.50;5.80;;;15.10;44.10;;;;;;5030364;28;19976;-63
2023/04/06 07:20:49;;;;;;;27.92;5.78;;;15.00;44.20;;;;;;5030185;28;20085;-63
2023/04/06 07:23:16;;;;;;;24.80;6.75;;;15.00;44.80;;;;;;5030542;28;20089;-62
2023/04/06 07:25:42;;;;;;;;;;;14.90;44.20;;;;;;5029164;28;20157;-64
2023/04/06 07:28:08;;;;;;;23.70;6.20;;;14.90;44.20;;;;;;5030681;28;20306;-63
2023/04/06 07:30:36;;;;;;;19.40;5.82;;;14.90;44.50;;;;;;5028964;28;20076;-62
2023/04/06 07:33:03;;;;;;;18.65;6.47;;;14.80;44.20;;;;;;5030389;28;20073;-65
2023/04/06 07:35:30;;;;;;;24.63;5.88;;;14.80;44.60;;;;;;5030282;28;20082;-63
2023/04/06 07:37:57;;;;;;;23.55;5.57;;;14.80;43.70;;;;;;5029332;28;20085;-63
2023/04/06 07:40:23;;;;;;;24.63;5.60;;;14.70;43.10;;;;;;5029257;28;20617;-63
2023/04/06 07:42:50;;;;;;;16.02;6.00;;;14.70;43.40;;;;;;5029348;28;20129;-63
2023/04/06 07:45:16;;;;;;;28.13;8.85;;;14.70;42.70;;;;;;5030547;28;20104;-63
2023/04/06 07:47:43;;;;;;;21.90;8.43;;;14.70;43.60;;;;;;5029509;28;20084;-63
2023/04/06 07:50:10;;;;;;;24.77;7.03;;;14.60;43.80;;;;;;5029360;28;20157;-62
2023/04/06 07:52:37;;;;;;;19.05;7.07;;;14.50;43.50;;;;;;5027408;28;20078;-63
2023/04/06 07:55:03;;;;;;;17.83;5.57;;;14.50;43.70;;;;;;5028991;28;20502;-63
2023/04/06 07:57:30;;;;;;;18.90;4.97;;;14.50;43.30;;;;;;5030280;28;20434;-62
2023/04/06 07:59:56;;;;;;;;;;;14.50;42.60;;;;;;5030963;28;20553;-62
2023/04/06 08:02:22;;;;;;;15.23;4.80;;;14.40;42.30;;;;;;5029271;28;20072;-62
2023/04/06 08:04:48;;;;;;;;;;;14.40;42.70;;;;;;5029271;28;20089;-62
2023/04/06 08:07:15;;;;;;;17.85;5.75;;;14.40;42.30;;;;;;5029144;28;19999;-64
2023/04/06 08:09:41;;;;;;;28.25;6.93;;;14.40;42.30;;;;;;5028919;28;20097;-64
2023/04/06 08:12:08;;;;;;;28.83;7.55;;;14.30;42.50;;;;;;5028968;28;20078;-63
2023/04/06 08:14:34;;;;;;;34.03;9.73;;;14.40;42.90;;;;;;5030099;28;20461;-63
2023/04/06 08:17:01;;;;;;;38.92;9.60;;;14.40;42.90;;;;;;5028104;28;20193;-63
2023/04/06 08:19:27;;;;;;;;;;;14.40;43.00;;;;;;5029564;28;20093;-63
2023/04/06 08:21:53;;;;;;;35.33;11.50;;;14.30;43.00;;;;;;5029128;28;19965;-62
2023/04/06 08:24:20;;;;;;;45.28;13.05;;;14.30;44.00;;;;;;5029364;28;20085;-63
2023/04/06 08:26:46;;;;;;;;;;;14.20;43.80;;;;;;5027169;28;20083;-62
2023/04/06 08:29:12;;;;;;;42.70;11.90;;;14.30;44.50;;;;;;5029063;28;19969;-62
2023/04/06 08:31:38;;;;;;;;;;;14.20;44.30;;;;;;5027865;28;20077;-63
2023/04/06 08:34:05;;;;;;;48.70;13.32;;;14.20;44.20;;;;;;5028747;28;20713;-63
2023/04/06 08:36:32;;;;;;;48.17;15.07;;;14.10;44.80;;;;;;5029251;28;20078;-63
2023/04/06 08:39:00;;;;;;;44.05;14.90;;;14.10;44.90;;;;;;5029307;28;20092;-61
2023/04/06 08:41:27;;;;;;;45.85;14.25;;;14.00;44.70;;;;;;5028414;28;20105;-62
2023/04/06 08:43:58;;;;;;;45.88;15.02;;;14.10;44.60;;;;;;5028747;28;20114;-62
2023/04/06 08:46:32;;;;;;;48.08;15.45;;;14.00;45.70;;;;;;5027686;28;20518;-63
2023/04/06 08:49:00;;;;;;;54.35;15.65;;;13.90;45.80;;;;;;5029104;28;20153;-63
2023/04/06 08:51:28;;;;;;;60.33;16.52;;;13.90;45.30;;;;;;5027653;28;20080;-63
2023/04/06 08:53:56;;;;;;;61.83;16.60;;;13.80;45.50;;;;;;5028296;28;20526;-61
2023/04/06 08:56:25;;;;;;;44.95;17.98;;;13.70;44.80;;;;;;5028716;28;20085;-64
2023/04/06 08:58:52;;;;;;;61.65;20.63;;;13.60;44.30;;;;;;5029022;28;20074;-62
2023/04/06 09:01:22;;;;;;;74.03;22.70;;;13.70;43.80;;;;;;5028293;28;20069;-63
2023/04/06 09:03:50;;;;;;;84.88;24.20;;;13.70;43.60;;;;;;5026674;28;20082;-61
2023/04/06 09:06:17;;;;;;;79.03;26.73;;;13.70;43.30;;;;;;5026534;28;20578;-63
2023/04/06 09:08:43;;;;;;;82.93;25.35;;;13.70;43.80;;;;;;5027669;28;20090;-61
2023/04/06 09:11:10;;;;;;;81.70;26.35;;;13.70;43.40;;;;;;5026552;28;20073;-63
2023/04/06 09:13:55;;;;;;;71.65;28.92;;;13.60;43.30;;;;;;5028159;28;20107;-62
2023/04/06 09:16:22;;;;;;;74.90;35.72;;;13.60;43.50;;;;;;5027437;28;20423;-62
2023/04/06 09:18:50;;;;;;;97.05;43.60;;;13.60;43.30;;;;;;5026735;28;20124;-61
2023/04/06 09:21:20;;;;;;;103.82;46.92;;;13.60;43.10;;;;;;5026835;28;20116;-63
2023/04/06 09:23:48;;;;;;;104.78;42.10;;;13.60;43.20;;;;;;5025932;28;20075;-63
2023/04/06 09:26:17;;;;;;;106.95;37.80;;;13.60;42.90;;;;;;5026362;28;20484;-62
2023/04/06 09:28:48;;;;;;;80.10;33.10;;;13.60;42.90;;;;;;5027532;28;20421;-63
2023/04/06 09:31:29;;;;;;;77.40;31.73;;;13.50;43.00;;;;;;5027125;28;20433;-63
2023/04/06 09:33:57;;;;;;;59.15;27.27;;;13.50;43.00;;;;;;5025771;28;20492;-64
2023/04/06 09:36:33;;;;;;;62.80;27.70;;;13.50;43.10;;;;;;5027255;28;20075;-63
2023/04/06 09:39:02;;;;;;;61.33;25.43;;;13.50;43.10;;;;;;5027635;28;20148;-62
2023/04/06 09:41:33;;;;;;;61.17;25.75;;;13.40;43.30;;;;;;5026799;28;20319;-62
2023/04/06 09:44:03;;;;;;;48.22;22.75;;;13.40;43.30;;;;;;5026376;28;20558;-63
2023/04/06 09:46:34;;;;;;;49.03;19.05;;;13.30;43.20;;;;;;5027416;28;20113;-64
2023/04/06 09:49:03;;;;;;;32.63;14.18;;;13.30;43.40;;;;;;5027209;28;20070;-65
2023/04/06 09:51:34;;;;;;;35.53;12.98;;;13.40;43.50;;;;;;5027216;28;20066;-63
2023/04/06 09:54:04;;;;;;;29.42;11.60;;;13.40;43.50;;;;;;5025545;28;20149;-61
2023/04/06 09:57:04;;;;;;;34.50;12.25;;;13.40;43.80;;;;;;5026420;28;20132;-63
2023/04/06 09:59:57;;;;;;;35.53;11.55;;;13.30;43.90;;;;;;5027333;28;20095;-63
2023/04/06 10:02:40;;;;;;;24.40;10.70;;;13.30;44.40;;;;;;5026343;28;20070;-65
2023/04/06 10:05:16;;;;;;;26.42;9.40;;;13.20;44.80;;;;;;5026367;28;20093;-62
2023/04/06 10:07:43;;;;;;;28.45;10.90;;;13.30;44.00;;;;;;5024179;28;20074;-63
2023/04/06 10:10:12;;;;;;;34.90;11.82;;;13.30;43.90;;;;;;5026735;28;20101;-63
2023/04/06 10:12:40;;;;;;;46.63;13.35;;;13.20;43.40;;;;;;5026367;28;20081;-64
2023/04/06 10:15:09;;;;;;;26.63;11.07;;;13.10;42.90;;;;;;5026429;28;20070;-63
2023/04/06 10:17:35;;;;;;;30.88;8.68;;;13.20;42.80;;;;;;5027131;28;20159;-63
2023/04/06 10:20:09;;;;;;;;;;;13.10;42.20;;;;;;5027327;28;20126;-61
2023/04/06 10:22:45;;;;;;;28.17;6.90;;;13.10;42.00;;;;;;5027516;28;20043;-64
2023/04/06 10:25:11;;;;;;;17.02;6.43;;;13.00;41.90;;;;;;5026423;28;20077;-63
2023/04/06 10:27:38;;;;;;;24.70;6.50;;;13.10;42.00;;;;;;5025322;28;20070;-63
2023/04/06 10:30:06;;;;;;;12.70;5.28;;;12.90;41.80;;;;;;5026235;28;20170;-62
2023/04/06 10:32:41;;;;;;;12.35;4.85;;;13.00;41.40;;;;;;5027042;28;20089;-61
2023/04/06 10:35:09;;;;;;;15.73;4.63;;;13.00;41.00;;;;;;5030302;28;20070;-63
2023/04/06 10:38:00;;;;;;;17.60;4.53;;;13.00;41.00;;;;;;5030256;28;20144;-63
2023/04/06 10:40:27;;;;;;;12.77;4.18;;;13.00;40.70;;;;;;5028992;28;20492;-61
2023/04/06 10:42:55;;;;;;;16.15;4.57;;;12.90;40.60;;;;;;5029930;28;20118;-63
2023/04/06 10:45:32;;;;;;;10.02;4.40;;;12.80;40.60;;;;;;5030468;28;20086;-63
2023/04/06 10:47:58;;;;;;;17.48;4.57;;;12.80;40.90;;;;;;5028664;28;20073;-62
2023/04/06 10:50:24;;;;;;;10.18;4.22;;;12.80;41.00;;;;;;5029828;28;20136;-63
2023/04/06 10:53:03;;;;;;;18.13;4.28;;;12.80;41.00;;;;;;5028394;28;20081;-63
2023/04/06 10:55:30;;;;;;;14.15;4.78;;;12.80;40.80;;;;;;5029600;28;20623;-62
2023/04/06 10:57:57;;;;;;;18.95;4.97;;;12.80;40.90;;;;;;5030697;28;20094;-61
2023/04/06 11:00:24;;;;;;;12.82;4.88;;;12.80;40.90;;;;;;5030099;28;20168;-63
2023/04/06 11:02:50;;;;;;;21.73;6.47;;;12.70;41.00;;;;;;5029040;28;20074;-63
2023/04/06 11:05:17;;;;;;;18.08;6.68;;;12.80;41.20;;;;;;5029912;28;20077;-61
2023/04/06 11:07:44;;;;;;;21.88;6.72;;;13.00;40.80;;;;;;5030465;28;20141;-62
2023/04/06 11:10:11;;;;;;;16.80;6.60;;;13.30;40.90;;;;;;5026248;28;20104;-61
2023/04/06 11:12:37;;;;;;;16.20;6.80;;;13.30;39.50;;;;;;5029826;28;20094;-62
2023/04/06 11:15:05;;;;;;;15.98;7.22;;;13.30;39.30;;;;;;5028316;28;20554;-62
2023/04/06 11:17:36;;;;;;;17.77;6.68;;;13.40;39.00;;;;;;5029737;28;20070;-63
2023/04/06 11:20:04;;;;;;;22.58;6.55;;;13.30;38.90;;;;;;5028851;28;20093;-63
2023/04/06 11:22:31;;;;;;;15.23;6.10;;;13.20;38.60;;;;;;5029559;28;20078;-63
2023/04/06 11:25:08;;;;;;;24.20;6.88;;;13.20;38.70;;;;;;5029395;28;20173;-62
2023/04/06 11:27:35;;;;;;;15.82;5.75;;;13.30;38.60;;;;;;5027708;28;20072;-62
2023/04/06 11:30:02;;;;;;;13.35;5.35;;;13.30;38.30;;;;;;5029825;28;20089;-64
2023/04/06 11:32:29;;;;;;;13.45;5.45;;;13.30;38.10;;;;;;5029338;28;20081;-60
2023/04/06 11:34:59;;;;;;;20.67;5.47;;;13.40;37.90;;;;;;5029542;28;20161;-66
2023/04/06 11:37:28;;;;;;;13.13;4.80;;;13.50;38.00;;;;;;5027831;28;20515;-61
2023/04/06 11:39:56;;;;;;;14.90;5.65;;;13.50;37.60;;;;;;5028139;28;20098;-62
2023/04/06 11:42:25;;;;;;;15.95;5.00;;;13.60;37.50;;;;;;5028727;28;20493;-61
2023/04/06 11:44:56;;;;;;;14.05;4.88;;;13.60;37.30;;;;;;5028204;28;20078;-63
2023/04/06 11:47:30;;;;;;;19.48;5.30;;;13.50;37.30;;;;;;5028181;28;20096;-63
2023/04/06 11:50:05;;;;;;;11.65;5.10;;;13.40;37.10;;;;;;5028845;28;20223;-62
2023/04/06 11:52:31;;;;;;;17.58;5.03;;;13.40;37.00;;;;;;5028445;28;20093;-62
2023/04/06 11:54:57;;;;;;;;;;;13.40;37.00;;;;;;5029435;28;20102;-61
2023/04/06 11:57:25;;;;;;;15.50;5.10;;;13.40;36.80;;;;;;5028931;28;20365;-62
2023/04/06 11:59:52;;;;;;;14.15;5.35;;;13.40;37.00;;;;;;5030028;28;20567;-63
2023/04/06 12:02:19;;;;;;;12.65;5.00;;;13.30;36.80;;;;;;5028595;28;20066;-62
2023/04/06 12:04:46;;;;;;;14.35;4.65;;;13.30;37.40;;;;;;5029551;28;20175;-62
2023/04/06 12:07:13;;;;;;;13.98;4.57;;;13.30;37.30;;;;;;5028153;28;20127;-62
2023/04/06 12:09:39;;;;;;;16.40;3.88;;;13.20;37.40;;;;;;5028090;28;20179;-63
2023/04/06 12:12:06;;;;;;;13.52;4.05;;;13.20;36.80;;;;;;5026037;28;20078;-62
2023/04/06 12:14:32;;;;;;;10.77;3.70;;;13.10;36.80;;;;;;5027193;28;20178;-63
2023/04/06 12:16:59;;;;;;;8.57;3.40;;;13.10;36.80;;;;;;5028410;28;20082;-63
2023/04/06 12:19:26;;;;;;;10.68;3.80;;;13.00;37.00;;;;;;5029368;28;20228;-62
2023/04/06 12:21:57;;;;;;;18.92;8.25;;;13.00;37.20;;;;;;5027925;28;20481;-63
2023/04/06 12:24:23;;;;;;;22.15;4.25;;;12.90;37.20;;;;;;5027981;28;20594;-65
2023/04/06 12:26:50;;;;;;;11.77;4.10;;;12.90;37.40;;;;;;5028294;28;20070;-63
2023/04/06 12:29:17;;;;;;;13.45;4.05;;;13.00;37.50;;;;;;5028059;28;20169;-63
2023/04/06 12:31:44;;;;;;;10.70;4.15;;;12.90;37.50;;;;;;5028459;28;20077;-62
2023/04/06 12:34:11;;;;;;;13.75;3.60;;;12.90;37.60;;;;;;5028516;28;20074;-66
2023/04/06 12:36:38;;;;;;;9.32;3.40;;;12.70;37.40;;;;;;5027680;28;20073;-63
2023/04/06 12:39:06;;;;;;;9.73;3.67;;;12.70;37.90;;;;;;5028260;28;20554;-61